Time;durP1;ratioP1;P1;durP2;ratioP2;P2;SDS_P1;SDS_P2;PMS_P1;PMS_P2;Temp;Humidity;BMP_temperature;BMP_pressure;BME280_temperature;BME280_humidity;BME280_pressure;Samples;Min_cycle;Max_cycle;Signal;HPM_P1;HPM_P2
2021/01/17 00:00:44;;;;;;;6.90;6.32;;;-1.30;99.90;;;;;;5113478;27;20235;-73
2021/01/17 00:03:11;;;;;;;6.90;6.30;;;-1.30;99.90;;;;;;5111132;27;20220;-72
2021/01/17 00:05:38;;;;;;;6.30;5.80;;;-1.30;99.90;;;;;;5089274;28;20221;-72
2021/01/17 00:08:08;;;;;;;6.45;5.95;;;-1.20;99.90;;;;;;5097268;28;20704;-73
2021/01/17 00:10:36;;;;;;;6.40;6.00;;;-1.30;99.90;;;;;;5085088;27;20229;-72
2021/01/17 00:13:03;;;;;;;6.35;5.85;;;-1.30;99.90;;;;;;5085967;28;20505;-73
2021/01/17 00:15:30;;;;;;;6.63;6.10;;;-1.30;99.90;;;;;;5086597;28;20601;-73
2021/01/17 00:17:57;;;;;;;6.60;6.15;;;-1.40;99.90;;;;;;5082643;28;20217;-73
2021/01/17 00:20:25;;;;;;;6.63;6.10;;;-1.40;99.90;;;;;;5091898;28;20584;-73
2021/01/17 00:22:54;;;;;;;7.22;6.53;;;-1.50;99.90;;;;;;5088213;27;20225;-74
2021/01/17 00:25:21;;;;;;;6.68;6.18;;;-1.50;99.90;;;;;;5083464;27;20691;-73
2021/01/17 00:27:50;;;;;;;6.93;6.20;;;-1.60;99.90;;;;;;5079759;28;20221;-73
2021/01/17 00:30:20;;;;;;;6.80;6.28;;;-1.60;99.90;;;;;;5080582;28;20252;-74
2021/01/17 00:32:50;;;;;;;6.38;5.78;;;-1.60;99.90;;;;;;5087041;28;20777;-73
2021/01/17 00:35:17;;;;;;;6.32;5.82;;;-1.60;99.90;;;;;;5085305;28;20222;-73
2021/01/17 00:37:44;;;;;;;6.30;5.70;;;-1.70;99.90;;;;;;5085665;28;20225;-72
2021/01/17 00:40:12;;;;;;;6.75;6.20;;;-1.70;99.90;;;;;;5084609;28;20358;-74
2021/01/17 00:42:45;;;;;;;6.68;6.18;;;-1.70;99.90;;;;;;5089460;27;20229;-72
2021/01/17 00:45:12;;;;;;;6.80;6.18;;;-1.70;99.90;;;;;;5105562;27;20215;-73
2021/01/17 00:47:43;;;;;;;6.70;6.20;;;-1.70;99.90;;;;;;5107369;27;20315;-73
2021/01/17 00:50:11;;;;;;;7.10;6.50;;;-1.70;99.90;;;;;;5099834;27;20228;-74
2021/01/17 00:52:37;;;;;;;6.70;6.10;;;-1.70;99.90;;;;;;5101248;28;20224;-73
2021/01/17 00:55:06;;;;;;;6.93;6.43;;;-1.70;99.90;;;;;;5096735;27;20260;-73
2021/01/17 00:57:33;;;;;;;6.47;6.00;;;-1.70;99.90;;;;;;5098472;28;20311;-73
2021/01/17 01:00:00;;;;;;;6.25;5.75;;;-1.70;99.90;;;;;;5117618;27;20209;-73
2021/01/17 01:02:26;;;;;;;5.75;5.35;;;-1.70;99.90;;;;;;5100228;27;20405;-74
2021/01/17 01:04:53;;;;;;;6.32;5.82;;;-1.70;99.90;;;;;;5101837;28;20228;-74
2021/01/17 01:07:19;;;;;;;6.53;6.03;;;-1.70;99.90;;;;;;5097960;27;20221;-73
2021/01/17 01:09:46;;;;;;;5.95;5.55;;;-1.70;99.90;;;;;;5094346;28;20216;-73
2021/01/17 01:12:14;;;;;;;6.75;5.38;;;-1.80;99.90;;;;;;5099287;28;20237;-73
2021/01/17 01:14:40;;;;;;;7.07;6.47;;;-1.80;99.90;;;;;;5097501;27;20216;-72
2021/01/17 01:17:07;;;;;;;6.45;5.95;;;-1.80;99.90;;;;;;5093723;28;20690;-73
2021/01/17 01:19:33;;;;;;;6.25;5.78;;;-1.80;99.90;;;;;;5099656;28;20270;-73
2021/01/17 01:22:02;;;;;;;6.55;6.05;;;-1.80;99.90;;;;;;5102608;27;20228;-73
2021/01/17 01:24:31;;;;;;;6.68;6.18;;;-1.90;99.90;;;;;;5096229;28;20225;-73
2021/01/17 01:26:57;;;;;;;6.35;5.95;;;-1.80;99.90;;;;;;5093784;28;20303;-73
2021/01/17 01:29:25;;;;;;;7.03;6.43;;;-1.90;99.90;;;;;;5100857;27;20847;-73
2021/01/17 01:31:52;;;;;;;6.88;6.38;;;-1.80;99.90;;;;;;5094574;28;20620;-72
2021/01/17 01:34:18;;;;;;;7.10;6.50;;;-1.80;99.90;;;;;;5100632;28;20213;-72
2021/01/17 01:36:45;;;;;;;6.32;5.90;;;-1.80;99.90;;;;;;5099361;27;20293;-73
2021/01/17 01:39:12;;;;;;;6.63;6.13;;;-1.80;99.90;;;;;;5095816;28;20221;-72
2021/01/17 01:41:40;;;;;;;6.25;5.85;;;-1.80;99.90;;;;;;5099746;28;20232;-73
2021/01/17 01:44:09;;;;;;;6.75;6.25;;;-1.80;99.90;;;;;;5098693;28;20270;-74
2021/01/17 01:46:39;;;;;;;6.18;5.78;;;-1.80;99.90;;;;;;5098823;27;20734;-73
2021/01/17 01:49:06;;;;;;;5.95;5.45;;;-1.80;99.90;;;;;;5094653;28;20226;-73
2021/01/17 01:51:33;;;;;;;6.30;5.70;;;-1.80;99.90;;;;;;5096130;27;20224;-75
2021/01/17 01:54:00;;;;;;;6.13;5.72;;;-1.80;99.90;;;;;;5112163;28;20466;-74
2021/01/17 01:56:27;;;;;;;6.60;6.10;;;-1.90;99.90;;;;;;5100292;27;20648;-73
2021/01/17 01:58:55;;;;;;;6.75;6.25;;;-1.90;99.90;;;;;;5095116;28;20706;-72
2021/01/17 02:01:22;;;;;;;7.57;6.85;;;-1.90;99.90;;;;;;5092423;27;20281;-74
2021/01/17 02:03:52;;;;;;;6.40;6.00;;;-1.90;99.90;;;;;;5105745;27;20597;-74
2021/01/17 02:06:20;;;;;;;6.10;5.60;;;-2.00;99.90;;;;;;5127262;27;20217;-75
2021/01/17 02:09:12;;;;;;;7.18;6.47;;;-2.00;99.90;;;;;;5123534;27;20713;-74
2021/01/17 02:11:56;;;;;;;6.45;5.85;;;-2.00;99.90;;;;;;5097079;27;20220;-73
2021/01/17 02:14:40;;;;;;;5.70;5.30;;;-2.00;99.90;;;;;;5095038;27;20216;-73
2021/01/17 02:17:13;;;;;;;6.68;6.18;;;-2.00;99.90;;;;;;5100266;28;20219;-75
2021/01/17 02:20:02;;;;;;;6.38;5.88;;;-2.00;99.90;;;;;;5095432;27;20250;-73
2021/01/17 02:22:33;;;;;;;7.22;6.72;;;-2.00;99.90;;;;;;5102998;27;20210;-73
2021/01/17 02:25:05;;;;;;;6.53;5.93;;;-2.00;99.90;;;;;;5104798;27;20216;-74
2021/01/17 02:27:32;;;;;;;6.13;5.65;;;-2.00;99.90;;;;;;5098940;27;20236;-73
2021/01/17 02:30:04;;;;;;;6.38;5.97;;;-2.00;99.90;;;;;;5104515;27;20220;-73
2021/01/17 02:32:32;;;;;;;5.55;5.15;;;-1.90;99.90;;;;;;5099256;27;20360;-73
2021/01/17 02:34:59;;;;;;;6.28;5.88;;;-1.90;99.90;;;;;;5113155;27;20227;-73
2021/01/17 02:37:33;;;;;;;6.65;6.15;;;-1.90;99.90;;;;;;5101065;27;20216;-74
2021/01/17 02:40:06;;;;;;;6.25;5.75;;;-1.90;99.90;;;;;;5112343;27;20722;-73
2021/01/17 02:42:33;;;;;;;6.68;6.18;;;-1.90;99.90;;;;;;5106517;27;20220;-72
2021/01/17 02:45:01;;;;;;;6.20;5.65;;;-1.90;99.90;;;;;;5113798;27;20216;-76
2021/01/17 02:47:28;;;;;;;6.30;5.80;;;-1.90;99.90;;;;;;5114741;27;20572;-74
2021/01/17 02:49:54;;;;;;;6.30;5.90;;;-1.80;99.90;;;;;;5107069;27;20224;-74
2021/01/17 02:52:33;;;;;;;5.30;5.00;;;-1.80;99.90;;;;;;5105616;27;20814;-73
2021/01/17 02:55:02;;;;;;;5.85;5.35;;;-1.80;99.90;;;;;;5099941;27;20216;-74
2021/01/17 02:57:34;;;;;;;5.93;5.43;;;-1.80;99.90;;;;;;5105723;27;20227;-73
2021/01/17 03:00:07;;;;;;;6.75;6.25;;;-1.80;99.90;;;;;;5104149;27;20527;-75
2021/01/17 03:02:35;;;;;;;6.43;5.93;;;-1.80;99.90;;;;;;5097688;27;20603;-73
2021/01/17 03:05:05;;;;;;;6.80;6.22;;;-1.80;99.90;;;;;;5102051;27;20231;-74
2021/01/17 03:07:35;;;;;;;5.85;5.45;;;-1.70;99.90;;;;;;5103274;27;20288;-74
2021/01/17 03:10:04;;;;;;;5.57;5.18;;;-1.80;99.90;;;;;;5104801;27;20227;-73
2021/01/17 03:12:32;;;;;;;6.38;5.85;;;-1.90;99.90;;;;;;5103772;27;20319;-75
2021/01/17 03:15:00;;;;;;;6.25;5.80;;;-1.90;99.90;;;;;;5107713;27;20277;-73
2021/01/17 03:17:26;;;;;;;5.72;5.28;;;-1.90;99.90;;;;;;5096320;27;20334;-73
2021/01/17 03:19:53;;;;;;;5.47;5.00;;;-2.00;99.90;;;;;;5097606;27;20270;-76
2021/01/17 03:22:19;;;;;;;6.03;5.63;;;-2.00;99.90;;;;;;5102702;27;20224;-74
2021/01/17 03:24:46;;;;;;;5.72;5.32;;;-1.90;99.90;;;;;;5101763;27;20217;-73
2021/01/17 03:27:12;;;;;;;5.75;5.35;;;-1.90;99.90;;;;;;5110293;27;20703;-73
2021/01/17 03:29:40;;;;;;;5.60;5.20;;;-1.90;99.90;;;;;;5104650;27;20228;-74
2021/01/17 03:32:06;;;;;;;5.88;5.47;;;-1.90;99.90;;;;;;5104086;27;21003;-75
2021/01/17 03:34:33;;;;;;;5.82;5.43;;;-1.90;99.90;;;;;;5102098;27;20229;-74
2021/01/17 03:36:59;;;;;;;5.75;5.25;;;-1.90;99.90;;;;;;5104096;27;20213;-73
2021/01/17 03:39:26;;;;;;;5.25;4.95;;;-1.90;99.90;;;;;;5114192;27;20313;-73
2021/01/17 03:41:52;;;;;;;5.97;5.57;;;-1.90;99.90;;;;;;5108199;27;20231;-73
2021/01/17 03:44:19;;;;;;;5.57;5.18;;;-2.00;99.90;;;;;;5100751;27;20213;-73
2021/01/17 03:46:47;;;;;;;5.88;5.40;;;-2.00;99.90;;;;;;5108926;27;20220;-76
2021/01/17 03:49:13;;;;;;;5.13;4.78;;;-2.00;99.90;;;;;;5103190;27;20221;-72
2021/01/17 03:51:40;;;;;;;5.13;4.80;;;-2.00;99.90;;;;;;5107064;27;20229;-74
2021/01/17 03:54:06;;;;;;;6.18;5.30;;;-2.00;99.90;;;;;;5106062;27;20226;-74
2021/01/17 03:56:33;;;;;;;5.43;5.05;;;-2.00;99.90;;;;;;5104004;27;20687;-73
2021/01/17 03:58:59;;;;;;;5.32;4.97;;;-2.00;99.90;;;;;;5100431;27;20744;-73
2021/01/17 04:01:26;;;;;;;4.88;4.47;;;-2.00;99.90;;;;;;5104779;27;20599;-74
2021/01/17 04:03:57;;;;;;;5.90;5.50;;;-2.00;99.90;;;;;;5108179;27;20220;-73
2021/01/17 04:06:24;;;;;;;6.00;5.60;;;-2.10;99.90;;;;;;5114887;27;20943;-72
2021/01/17 04:08:51;;;;;;;6.57;6.07;;;-2.10;99.90;;;;;;5112847;27;20216;-73
2021/01/17 04:11:17;;;;;;;5.65;5.25;;;-2.10;99.90;;;;;;5103773;27;20221;-75
2021/01/17 04:13:44;;;;;;;4.97;4.68;;;-2.20;99.90;;;;;;5110304;27;20699;-75
2021/01/17 04:16:10;;;;;;;5.70;5.30;;;-2.20;99.90;;;;;;5109823;27;20221;-76
2021/01/17 04:18:37;;;;;;;5.05;4.75;;;-2.20;99.90;;;;;;5110320;27;20701;-73
2021/01/17 04:21:05;;;;;;;5.70;5.30;;;-2.20;99.90;;;;;;5107166;27;20469;-73
2021/01/17 04:23:31;;;;;;;5.28;4.97;;;-2.10;99.90;;;;;;5106061;27;20232;-73
2021/01/17 04:25:58;;;;;;;5.13;4.78;;;-2.00;99.90;;;;;;5078757;27;20497;-73
2021/01/17 04:28:24;;;;;;;5.78;5.47;;;-2.00;99.90;;;;;;5076486;28;20524;-73
2021/01/17 04:30:51;;;;;;;5.32;4.93;;;-2.10;99.90;;;;;;5078655;28;20704;-73
2021/01/17 04:33:20;;;;;;;5.80;5.40;;;-2.20;99.90;;;;;;5090638;28;20600;-73
2021/01/17 04:35:48;;;;;;;5.80;5.40;;;-2.30;99.90;;;;;;5078627;28;20243;-74
2021/01/17 04:38:15;;;;;;;5.68;5.28;;;-2.30;99.90;;;;;;5077271;28;20222;-73
2021/01/17 04:40:42;;;;;;;6.00;5.60;;;-2.20;99.90;;;;;;5082291;28;20287;-74
2021/01/17 04:43:10;;;;;;;6.15;5.75;;;-2.20;99.90;;;;;;5099379;27;20224;-73
2021/01/17 04:45:37;;;;;;;5.60;5.20;;;-2.20;99.90;;;;;;5095692;27;20221;-73
2021/01/17 04:48:05;;;;;;;4.72;4.43;;;-2.20;99.90;;;;;;5105350;27;20224;-74
2021/01/17 04:50:33;;;;;;;4.68;4.45;;;-2.20;99.90;;;;;;5108733;27;20286;-74
2021/01/17 04:53:01;;;;;;;6.07;5.57;;;-2.20;99.90;;;;;;5107822;27;20217;-73
2021/01/17 04:55:28;;;;;;;5.55;5.15;;;-2.20;99.90;;;;;;5105328;27;20227;-73
2021/01/17 04:58:16;;;;;;;5.75;5.22;;;-2.10;99.90;;;;;;5110959;27;20334;-72
2021/01/17 05:00:48;;;;;;;6.00;5.60;;;-2.10;99.90;;;;;;5075736;28;20229;-75
2021/01/17 05:03:29;;;;;;;6.15;5.75;;;-2.10;99.90;;;;;;5075973;28;20222;-73
2021/01/17 05:06:12;;;;;;;5.88;5.43;;;-2.10;99.90;;;;;;5098885;27;20586;-73
2021/01/17 05:08:44;;;;;;;6.13;5.63;;;-2.10;99.90;;;;;;5102177;27;20220;-74
2021/01/17 05:11:27;;;;;;;5.60;5.20;;;-2.20;99.90;;;;;;5083046;27;20222;-74
2021/01/17 05:14:10;;;;;;;5.20;4.88;;;-2.20;99.90;;;;;;5079781;27;20233;-73
2021/01/17 05:16:39;;;;;;;5.40;5.10;;;-2.20;99.90;;;;;;5107030;27;20244;-74
2021/01/17 05:19:06;;;;;;;5.38;4.97;;;-2.20;99.90;;;;;;5107077;27;20288;-75
2021/01/17 05:21:34;;;;;;;5.28;4.97;;;-2.20;99.90;;;;;;5121191;27;20257;-76
2021/01/17 05:24:05;;;;;;;5.80;5.40;;;-2.10;99.90;;;;;;5123985;27;20228;-74
2021/01/17 05:26:38;;;;;;;6.28;5.75;;;-2.10;99.90;;;;;;5114676;27;20585;-74
2021/01/17 05:29:05;;;;;;;5.75;5.30;;;-2.10;99.90;;;;;;5100800;27;20235;-75
2021/01/17 05:31:33;;;;;;;5.93;5.53;;;-2.10;99.90;;;;;;5083651;27;20235;-74
2021/01/17 05:34:00;;;;;;;5.45;5.15;;;-2.20;99.90;;;;;;5108171;27;20691;-74
2021/01/17 05:36:26;;;;;;;5.88;5.45;;;-2.20;99.90;;;;;;5105797;27;20226;-73
2021/01/17 05:39:01;;;;;;;5.03;4.72;;;-2.20;99.90;;;;;;5109071;27;20226;-74
2021/01/17 05:41:28;;;;;;;5.75;5.35;;;-2.20;99.90;;;;;;5104743;27;20265;-75
2021/01/17 05:43:55;;;;;;;5.40;5.00;;;-2.20;99.90;;;;;;5105284;27;20232;-74
2021/01/17 05:46:22;;;;;;;5.85;5.35;;;-2.30;99.90;;;;;;5092740;27;20573;-75
2021/01/17 05:48:48;;;;;;;6.05;5.55;;;-2.30;99.90;;;;;;5108123;27;20704;-75
2021/01/17 05:51:27;;;;;;;6.40;5.90;;;-2.30;99.90;;;;;;5104395;27;20707;-74
2021/01/17 05:53:55;;;;;;;6.18;5.68;;;-2.40;99.90;;;;;;5101914;27;20657;-75
2021/01/17 05:56:22;;;;;;;5.60;5.30;;;-2.50;99.90;;;;;;5076080;27;20691;-74
2021/01/17 05:58:48;;;;;;;6.13;5.63;;;-2.50;99.90;;;;;;5076783;28;20308;-75
2021/01/17 06:01:18;;;;;;;5.25;4.93;;;-2.50;99.90;;;;;;5073325;28;20243;-74
2021/01/17 06:03:51;;;;;;;6.90;6.22;;;-2.50;99.90;;;;;;5077346;28;20581;-74
2021/01/17 06:06:26;;;;;;;18.65;12.15;;;-2.50;99.90;;;;;;5071642;28;20214;-74
2021/01/17 06:08:55;;;;;;;14.63;10.07;;;-2.50;99.90;;;;;;5079814;28;20235;-74
2021/01/17 06:11:22;;;;;;;15.38;9.73;;;-2.50;99.90;;;;;;5077690;28;20579;-74
2021/01/17 06:13:57;;;;;;;11.05;8.43;;;-2.50;99.90;;;;;;5071634;28;20803;-75
2021/01/17 06:16:31;;;;;;;9.50;7.80;;;-2.60;99.90;;;;;;5076759;28;20708;-74
2021/01/17 06:18:59;;;;;;;8.75;7.93;;;-2.60;99.90;;;;;;5088535;28;20289;-76
2021/01/17 06:21:27;;;;;;;7.80;6.82;;;-2.70;99.90;;;;;;5079152;28;20228;-74
2021/01/17 06:23:55;;;;;;;7.57;6.85;;;-2.70;99.90;;;;;;5074481;28;20213;-73
2021/01/17 06:26:26;;;;;;;6.65;6.05;;;-2.60;99.90;;;;;;5071195;28;20221;-74
2021/01/17 06:28:54;;;;;;;6.40;5.90;;;-2.60;99.90;;;;;;5073107;28;20232;-74
2021/01/17 06:31:29;;;;;;;6.88;6.28;;;-2.60;99.90;;;;;;5073678;28;20217;-74
2021/01/17 06:34:06;;;;;;;7.35;6.75;;;-2.60;99.90;;;;;;5076262;28;20287;-74
2021/01/17 06:36:34;;;;;;;6.35;5.85;;;-2.60;99.90;;;;;;5072718;28;20656;-75
2021/01/17 06:39:01;;;;;;;6.93;6.40;;;-2.70;99.90;;;;;;5076660;28;20641;-74
2021/01/17 06:41:38;;;;;;;5.85;5.45;;;-2.70;99.90;;;;;;5076420;28;20230;-75
2021/01/17 06:44:09;;;;;;;6.40;5.95;;;-2.80;99.90;;;;;;5073853;28;20766;-74
2021/01/17 06:46:42;;;;;;;5.78;5.38;;;-2.80;99.90;;;;;;5101422;27;20212;-73
2021/01/17 06:49:20;;;;;;;5.80;5.43;;;-2.80;99.90;;;;;;5101729;27;20232;-74
2021/01/17 06:51:47;;;;;;;5.65;5.18;;;-2.80;99.90;;;;;;5110607;27;20216;-74
2021/01/17 06:54:16;;;;;;;5.05;4.68;;;-2.80;99.90;;;;;;5101035;27;20231;-72
2021/01/17 06:56:45;;;;;;;5.97;5.50;;;-2.80;99.90;;;;;;5089718;27;20225;-72
2021/01/17 06:59:12;;;;;;;6.68;5.65;;;-2.70;99.90;;;;;;5104030;27;20617;-74
2021/01/17 07:01:46;;;;;;;6.55;6.05;;;-2.70;99.90;;;;;;5107564;27;20224;-74
2021/01/17 07:04:40;;;;;;;6.20;5.80;;;-2.60;99.90;;;;;;5101658;27;20251;-74
2021/01/17 07:07:29;;;;;;;6.03;5.53;;;-2.70;99.90;;;;;;5104157;27;20816;-75
2021/01/17 07:10:00;;;;;;;6.53;6.03;;;-2.70;99.90;;;;;;5105814;27;20777;-71
2021/01/17 07:12:41;;;;;;;6.55;6.05;;;-2.70;99.90;;;;;;5115486;27;20236;-75
2021/01/17 07:15:09;;;;;;;6.68;6.18;;;-2.70;99.90;;;;;;5096955;27;20221;-73
2021/01/17 07:17:38;;;;;;;6.75;6.25;;;-2.60;99.90;;;;;;5100894;27;20223;-74
2021/01/17 07:20:08;;;;;;;5.15;4.85;;;-2.60;99.90;;;;;;5101179;27;20274;-74
2021/01/17 07:22:36;;;;;;;5.90;5.50;;;-2.50;99.90;;;;;;5091355;27;20220;-73
2021/01/17 07:25:06;;;;;;;6.50;5.88;;;-2.50;99.90;;;;;;5091815;27;20228;-74
2021/01/17 07:28:04;;;;;;;11.52;9.48;;;-2.40;99.90;;;;;;5081817;27;20221;-74
2021/01/17 07:30:43;;;;;;;8.85;8.05;;;-2.40;99.90;;;;;;5081027;28;20222;-75
2021/01/17 07:33:11;;;;;;;8.23;7.45;;;-2.30;99.90;;;;;;5091363;27;20224;-74
2021/01/17 07:35:39;;;;;;;7.57;6.88;;;-2.30;99.90;;;;;;5100227;27;20213;-75
2021/01/17 07:38:15;;;;;;;7.30;6.60;;;-2.30;99.90;;;;;;5097581;27;20587;-76
2021/01/17 07:40:51;;;;;;;6.22;5.82;;;-2.20;99.90;;;;;;5100103;27;20224;-76
2021/01/17 07:43:26;;;;;;;6.30;5.60;;;-2.20;99.90;;;;;;5076765;28;20599;-77
2021/01/17 07:45:54;;;;;;;7.35;6.68;;;-2.20;99.90;;;;;;5078214;28;20893;-76
2021/01/17 07:48:22;;;;;;;6.35;5.80;;;-2.10;99.90;;;;;;5077614;28;20221;-74
2021/01/17 07:50:50;;;;;;;6.20;5.78;;;-2.00;99.90;;;;;;5076853;28;20420;-74
2021/01/17 07:53:39;;;;;;;6.13;5.53;;;-1.90;99.90;;;;;;5076418;28;20235;-77
2021/01/17 07:56:09;;;;;;;5.93;5.53;;;-1.80;99.90;;;;;;5090683;27;20498;-76
2021/01/17 07:58:41;;;;;;;5.50;5.15;;;-1.70;99.90;;;;;;5102940;27;20602;-75
2021/01/17 08:01:46;;;;;;;5.68;5.30;;;-1.60;99.90;;;;;;5077704;28;20237;-76
2021/01/17 08:04:23;;;;;;;6.85;6.35;;;-1.50;99.90;;;;;;5078325;27;20224;-77
2021/01/17 08:06:50;;;;;;;7.53;6.93;;;-1.30;99.90;;;;;;5099634;27;20217;-77
2021/01/17 08:09:18;;;;;;;7.18;6.68;;;-1.20;99.90;;;;;;5082825;27;20213;-75
2021/01/17 08:11:46;;;;;;;6.38;5.97;;;-1.20;99.90;;;;;;5076010;28;20222;-75
2021/01/17 08:14:24;;;;;;;7.55;6.85;;;-1.10;99.90;;;;;;5080081;27;20225;-76
2021/01/17 08:17:11;;;;;;;6.15;5.75;;;-0.90;99.90;;;;;;5094488;27;20217;-74
2021/01/17 08:19:41;;;;;;;7.40;6.80;;;-0.70;99.90;;;;;;5093506;27;20286;-74
2021/01/17 08:22:47;;;;;;;9.18;8.27;;;-0.60;99.90;;;;;;5097985;27;20711;-74
2021/01/17 08:25:32;;;;;;;11.88;10.68;;;-0.20;99.90;;;;;;5099928;27;20656;-75
2021/01/17 08:27:59;;;;;;;12.43;11.23;;;0.10;99.90;;;;;;5095436;27;20702;-75
2021/01/17 08:30:26;;;;;;;13.32;12.02;;;0.10;99.90;;;;;;5093948;27;20278;-75
2021/01/17 08:32:54;;;;;;;12.45;11.35;;;0.00;99.90;;;;;;5099817;27;20225;-75
2021/01/17 08:35:35;;;;;;;12.77;11.50;;;0.00;99.90;;;;;;5102576;27;20228;-74
2021/01/17 08:38:19;;;;;;;12.70;11.43;;;0.00;99.90;;;;;;5100077;27;20233;-75
2021/01/17 08:40:48;;;;;;;12.13;10.93;;;0.00;99.90;;;;;;5090512;27;20597;-75
2021/01/17 08:43:16;;;;;;;14.13;11.38;;;0.20;99.90;;;;;;5104430;27;20229;-75
2021/01/17 08:45:44;;;;;;;9.52;8.68;;;0.30;99.90;;;;;;5122718;27;20235;-74
2021/01/17 08:48:28;;;;;;;11.98;10.77;;;0.50;99.90;;;;;;5104764;27;20241;-76
2021/01/17 08:50:57;;;;;;;12.32;11.23;;;0.60;99.90;;;;;;5097570;27;20754;-75
2021/01/17 08:53:32;;;;;;;12.48;11.23;;;0.70;99.90;;;;;;5098018;27;20221;-74
2021/01/17 08:56:03;;;;;;;11.05;9.95;;;1.00;99.90;;;;;;5073348;28;20283;-73
2021/01/17 08:58:48;;;;;;;9.85;8.90;;;1.10;99.90;;;;;;5089860;28;20399;-74
2021/01/17 09:01:16;;;;;;;9.02;8.25;;;1.30;99.90;;;;;;5070762;28;20217;-73
2021/01/17 09:04:05;;;;;;;11.38;9.75;;;1.40;99.90;;;;;;5075189;28;20341;-75
2021/01/17 09:06:34;;;;;;;12.07;10.45;;;1.80;99.90;;;;;;5073407;28;20246;-76
2021/01/17 09:09:14;;;;;;;11.45;10.43;;;2.70;99.90;;;;;;5076980;28;20229;-76
2021/01/17 09:11:41;;;;;;;10.77;9.77;;;3.50;99.90;;;;;;5083933;27;20497;-75
2021/01/17 09:14:27;;;;;;;8.95;8.00;;;4.30;99.90;;;;;;5102414;27;20223;-76
2021/01/17 09:16:56;;;;;;;10.65;9.40;;;4.80;99.90;;;;;;5095954;28;20228;-75
2021/01/17 09:19:25;;;;;;;10.55;9.55;;;4.60;99.90;;;;;;5100231;28;20213;-75
2021/01/17 09:21:54;;;;;;;10.35;9.35;;;5.00;99.90;;;;;;5100065;28;20225;-75
2021/01/17 09:24:23;;;;;;;10.05;9.07;;;5.50;99.90;;;;;;5098912;27;20707;-76
2021/01/17 09:26:51;;;;;;;10.45;9.45;;;5.30;99.90;;;;;;5114336;27;20737;-75
2021/01/17 09:29:26;;;;;;;9.82;8.82;;;4.90;99.90;;;;;;5101760;27;20759;-75
2021/01/17 09:31:55;;;;;;;9.30;8.50;;;4.60;99.90;;;;;;5101978;27;20228;-76
2021/01/17 09:34:27;;;;;;;8.82;7.97;;;5.80;99.90;;;;;;5106239;27;20224;-75
2021/01/17 09:36:56;;;;;;;8.88;7.97;;;7.40;99.90;;;;;;5104635;27;20216;-75
2021/01/17 09:39:27;;;;;;;8.95;8.05;;;9.80;99.90;;;;;;5110624;27;20587;-75
2021/01/17 09:41:54;;;;;;;8.60;7.80;;;12.30;97.80;;;;;;5109587;27;20922;-75
2021/01/17 09:44:21;;;;;;;8.30;7.50;;;13.80;91.60;;;;;;5106275;27;20241;-75
2021/01/17 09:46:47;;;;;;;10.43;8.27;;;14.50;85.80;;;;;;5103629;27;20221;-75
2021/01/17 09:49:14;;;;;;;8.55;7.70;;;14.60;82.40;;;;;;5109971;27;20217;-76
2021/01/17 09:51:46;;;;;;;8.45;7.65;;;14.70;79.40;;;;;;5124606;27;20228;-76
2021/01/17 09:54:14;;;;;;;9.20;8.30;;;14.40;78.50;;;;;;5103966;27;20224;-75
2021/01/17 09:56:41;;;;;;;9.88;8.20;;;14.20;79.50;;;;;;5107729;27;20218;-76
2021/01/17 09:59:16;;;;;;;8.45;7.60;;;13.70;80.10;;;;;;5102394;27;20221;-75
2021/01/17 10:01:44;;;;;;;8.23;7.40;;;12.90;80.70;;;;;;5099163;27;20228;-77
2021/01/17 10:04:26;;;;;;;11.93;7.47;;;11.80;84.30;;;;;;5105565;27;20232;-76
2021/01/17 10:06:54;;;;;;;9.70;8.57;;;10.70;88.00;;;;;;5104744;27;20239;-77
2021/01/17 10:09:23;;;;;;;10.18;8.23;;;9.70;90.50;;;;;;5100688;27;20273;-75
2021/01/17 10:11:57;;;;;;;8.00;7.20;;;9.10;91.60;;;;;;5105712;27;20228;-74
2021/01/17 10:14:26;;;;;;;8.45;7.65;;;8.60;92.20;;;;;;5108304;27;20224;-75
2021/01/17 10:16:53;;;;;;;7.57;6.88;;;8.20;93.10;;;;;;5111568;27;20220;-76
2021/01/17 10:19:28;;;;;;;7.60;6.68;;;7.60;93.60;;;;;;5104838;27;20246;-74
2021/01/17 10:21:55;;;;;;;7.60;6.80;;;6.80;94.20;;;;;;5103508;27;20227;-74
2021/01/17 10:24:28;;;;;;;7.57;6.75;;;6.00;95.20;;;;;;5110774;27;20217;-75
2021/01/17 10:26:56;;;;;;;6.93;6.20;;;5.20;96.50;;;;;;5105051;27;20661;-75
2021/01/17 10:29:26;;;;;;;6.53;6.03;;;4.60;97.70;;;;;;5105348;27;20220;-76
2021/01/17 10:31:57;;;;;;;7.25;6.55;;;4.20;98.50;;;;;;5100847;27;20886;-74
2021/01/17 10:34:26;;;;;;;7.68;7.03;;;3.80;99.30;;;;;;5108490;27;20212;-74
2021/01/17 10:36:57;;;;;;;7.93;7.13;;;3.60;99.90;;;;;;5107763;27;20216;-74
2021/01/17 10:39:25;;;;;;;8.02;7.32;;;3.50;99.90;;;;;;5105183;27;20216;-74
2021/01/17 10:42:01;;;;;;;8.13;7.32;;;3.20;99.90;;;;;;5108954;27;20553;-74
2021/01/17 10:44:29;;;;;;;8.63;7.15;;;3.00;99.90;;;;;;5119810;27;20519;-76
2021/01/17 10:47:03;;;;;;;9.25;8.35;;;2.90;99.90;;;;;;5104968;27;20470;-74
2021/01/17 10:49:34;;;;;;;8.82;8.02;;;2.90;99.90;;;;;;5106956;27;20220;-75
2021/01/17 10:52:12;;;;;;;9.02;8.13;;;2.90;99.90;;;;;;5100540;27;20224;-75
2021/01/17 10:54:44;;;;;;;9.93;8.93;;;3.10;99.90;;;;;;5101187;27;20231;-74
2021/01/17 10:57:12;;;;;;;16.27;14.07;;;3.30;99.90;;;;;;5097068;27;20236;-75
2021/01/17 10:59:39;;;;;;;11.02;9.82;;;3.30;99.90;;;;;;5112335;27;20243;-74
2021/01/17 11:02:07;;;;;;;8.38;7.57;;;3.20;99.90;;;;;;5100045;27;20234;-75
2021/01/17 11:04:40;;;;;;;6.90;6.28;;;3.10;99.90;;;;;;5106977;27;20219;-74
2021/01/17 11:07:07;;;;;;;7.78;7.07;;;3.10;99.90;;;;;;5102150;27;20583;-74
2021/01/17 11:09:35;;;;;;;7.63;6.93;;;3.20;99.90;;;;;;5108048;27;20221;-76
2021/01/17 11:12:03;;;;;;;10.18;8.35;;;3.30;99.90;;;;;;5107371;27;20234;-74
2021/01/17 11:14:31;;;;;;;8.32;7.60;;;3.50;99.90;;;;;;5112957;27;20217;-75
2021/01/17 11:16:58;;;;;;;7.47;6.72;;;3.50;99.90;;;;;;5111301;27;20217;-74
2021/01/17 11:19:36;;;;;;;8.27;7.57;;;3.50;99.90;;;;;;5108812;27;20220;-74
2021/01/17 11:22:03;;;;;;;8.30;7.55;;;3.40;99.90;;;;;;5088752;27;20362;-74
2021/01/17 11:24:35;;;;;;;7.53;6.82;;;3.30;99.90;;;;;;5090952;28;20224;-74
2021/01/17 11:27:11;;;;;;;7.68;6.97;;;3.30;99.90;;;;;;5103942;27;21262;-73
2021/01/17 11:29:37;;;;;;;9.60;8.70;;;3.20;99.90;;;;;;5114190;27;20235;-73
2021/01/17 11:32:04;;;;;;;10.98;9.20;;;3.00;99.90;;;;;;5110306;27;20232;-75
2021/01/17 11:34:35;;;;;;;10.65;9.65;;;2.80;99.90;;;;;;5113064;27;20226;-74
2021/01/17 11:37:02;;;;;;;9.45;8.55;;;2.60;99.90;;;;;;5113080;27;20261;-76
2021/01/17 11:39:29;;;;;;;11.52;10.35;;;2.60;99.90;;;;;;5120010;27;20270;-74
2021/01/17 11:41:56;;;;;;;9.82;8.82;;;2.40;99.90;;;;;;5113000;27;20221;-74
2021/01/17 11:44:25;;;;;;;8.45;7.65;;;2.20;99.90;;;;;;5112256;27;20220;-73
2021/01/17 11:46:52;;;;;;;8.32;7.47;;;2.10;99.90;;;;;;5105749;27;20703;-74
2021/01/17 11:49:24;;;;;;;7.47;6.78;;;2.20;99.90;;;;;;5110351;27;20217;-74
2021/01/17 11:51:50;;;;;;;6.97;6.28;;;2.10;99.90;;;;;;5107212;27;20228;-74
2021/01/17 11:54:19;;;;;;;7.07;6.47;;;2.10;99.90;;;;;;5105784;27;20221;-74
2021/01/17 11:56:46;;;;;;;6.65;6.10;;;2.20;99.90;;;;;;5112010;27;20437;-74
2021/01/17 11:59:27;;;;;;;7.38;6.78;;;2.20;99.90;;;;;;5114147;27;20228;-74
2021/01/17 12:01:54;;;;;;;7.70;7.07;;;2.30;99.90;;;;;;5109351;27;20220;-75
2021/01/17 12:04:25;;;;;;;8.13;7.35;;;2.20;99.90;;;;;;5110670;27;20285;-75
2021/01/17 12:07:06;;;;;;;9.02;7.25;;;2.20;99.90;;;;;;5113531;27;20224;-73
2021/01/17 12:09:33;;;;;;;7.60;6.90;;;2.40;99.90;;;;;;5113966;27;20236;-73
2021/01/17 12:12:11;;;;;;;8.18;7.38;;;2.30;99.90;;;;;;5116059;27;20228;-75
2021/01/17 12:14:38;;;;;;;7.60;6.88;;;2.50;99.90;;;;;;5111039;27;20220;-74
2021/01/17 12:17:06;;;;;;;8.07;7.43;;;2.50;99.90;;;;;;5110270;27;20232;-75
2021/01/17 12:19:34;;;;;;;8.95;7.07;;;2.50;99.90;;;;;;5117297;27;20224;-75
2021/01/17 12:22:02;;;;;;;9.55;7.50;;;2.40;99.90;;;;;;5114429;27;20232;-74
2021/01/17 12:24:29;;;;;;;7.90;7.20;;;2.40;99.90;;;;;;5119587;27;20698;-74
2021/01/17 12:26:56;;;;;;;8.57;7.78;;;2.50;99.90;;;;;;5115363;27;20265;-75
2021/01/17 12:29:24;;;;;;;9.50;7.85;;;2.70;99.90;;;;;;5113070;27;20228;-74
2021/01/17 12:31:52;;;;;;;7.47;6.70;;;2.90;99.90;;;;;;5110676;27;20642;-73
2021/01/17 12:34:19;;;;;;;7.70;7.00;;;3.00;99.90;;;;;;5110404;27;20216;-74
2021/01/17 12:36:47;;;;;;;7.45;6.85;;;3.20;99.90;;;;;;5107014;27;20779;-74
2021/01/17 12:39:16;;;;;;;7.45;6.75;;;3.40;99.90;;;;;;5108354;27;20222;-74
2021/01/17 12:41:44;;;;;;;7.53;6.78;;;3.50;99.90;;;;;;5105692;27;20258;-73
2021/01/17 12:44:12;;;;;;;6.43;5.90;;;3.50;99.90;;;;;;5110154;27;20224;-75
2021/01/17 12:46:38;;;;;;;6.55;5.78;;;3.40;99.90;;;;;;5093844;27;20679;-73
2021/01/17 12:49:06;;;;;;;6.15;5.65;;;3.30;99.90;;;;;;5107686;27;20224;-73
2021/01/17 12:51:34;;;;;;;7.47;6.93;;;3.30;99.90;;;;;;5099647;27;20698;-73
2021/01/17 12:54:01;;;;;;;7.53;6.82;;;3.30;99.90;;;;;;5112192;27;20584;-74
2021/01/17 12:56:28;;;;;;;8.13;7.32;;;3.40;99.90;;;;;;5109328;27;20249;-73
2021/01/17 12:58:54;;;;;;;9.63;8.45;;;3.40;99.90;;;;;;5110242;27;20535;-73
2021/01/17 13:01:21;;;;;;;8.50;7.70;;;3.50;99.90;;;;;;5103199;27;20232;-74
2021/01/17 13:03:48;;;;;;;7.75;7.05;;;3.50;99.90;;;;;;5109650;27;20228;-74